Time;durP1;ratioP1;P1;durP2;ratioP2;P2;SDS_P1;SDS_P2;PMS_P1;PMS_P2;Temp;Humidity;BMP_temperature;BMP_pressure;BME280_temperature;BME280_humidity;BME280_pressure;Samples;Min_cycle;Max_cycle;Signal;HPM_P1;HPM_P2
2022/05/07 00:00:16;;;;;;;2.8;2;;;;;;;;;;;;;
2022/05/07 00:02:41;;;;;;;2.7;2;;;;;;;;;;;;;
2022/05/07 00:05:06;;;;;;;3;2.2;;;;;;;;;;;;;
2022/05/07 00:07:31;;;;;;;2.6;2.2;;;;;;;;;;;;;
2022/05/07 00:09:58;;;;;;;3.4;2.3;;;;;;;;;;;;;
2022/05/07 00:12:23;;;;;;;3.3;2.4;;;;;;;;;;;;;
2022/05/07 00:14:48;;;;;;;2.5;2.2;;;;;;;;;;;;;
2022/05/07 00:19:38;;;;;;;3.8;2.4;;;;;;;;;;;;;
2022/05/07 00:22:04;;;;;;;4.4;2.6;;;;;;;;;;;;;
2022/05/07 00:24:29;;;;;;;4.5;2.5;;;;;;;;;;;;;
2022/05/07 00:26:56;;;;;;;4.5;2.8;;;;;;;;;;;;;
2022/05/07 00:29:21;;;;;;;2.9;2.4;;;;;;;;;;;;;
2022/05/07 00:31:47;;;;;;;3.3;2.2;;;;;;;;;;;;;
2022/05/07 00:34:12;;;;;;;3.2;2.5;;;;;;;;;;;;;
2022/05/07 00:36:39;;;;;;;3.4;2.4;;;;;;;;;;;;;
2022/05/07 00:39:05;;;;;;;4.5;2.8;;;;;;;;;;;;;
2022/05/07 00:41:30;;;;;;;2.7;2.3;;;;;;;;;;;;;
2022/05/07 00:43:55;;;;;;;3;2.2;;;;;;;;;;;;;
2022/05/07 00:46:21;;;;;;;3.6;2.3;;;;;;;;;;;;;
2022/05/07 00:48:46;;;;;;;3;2.1;;;;;;;;;;;;;
2022/05/07 00:53:36;;;;;;;4.2;2.4;;;;;;;;;;;;;
2022/05/07 00:56:03;;;;;;;6.7;2.5;;;;;;;;;;;;;
2022/05/07 00:58:28;;;;;;;10.4;2.8;;;;;;;;;;;;;
2022/05/07 01:00:54;;;;;;;5.6;2.5;;;;;;;;;;;;;
2022/05/07 01:03:19;;;;;;;3.8;2.6;;;;;;;;;;;;;
2022/05/07 01:05:45;;;;;;;3.5;3;;;;;;;;;;;;;
2022/05/07 01:08:10;;;;;;;4.1;3;;;;;;;;;;;;;
2022/05/07 01:10:36;;;;;;;4.6;2.8;;;;;;;;;;;;;
2022/05/07 01:13:02;;;;;;;4.5;3.4;;;;;;;;;;;;;
2022/05/07 01:15:28;;;;;;;3.4;2.7;;;;;;;;;;;;;
2022/05/07 01:17:53;;;;;;;5.2;3.2;;;;;;;;;;;;;
2022/05/07 01:20:19;;;;;;;5.4;3.4;;;;;;;;;;;;;
2022/05/07 01:22:44;;;;;;;3.5;3;;;;;;;;;;;;;
2022/05/07 01:25:09;;;;;;;3.1;2.8;;;;;;;;;;;;;
2022/05/07 01:27:34;;;;;;;6.4;2.8;;;;;;;;;;;;;
2022/05/07 01:30:00;;;;;;;3.1;2.3;;;;;;;;;;;;;
2022/05/07 01:32:25;;;;;;;3.9;2.5;;;;;;;;;;;;;
2022/05/07 01:34:53;;;;;;;3.2;2.6;;;;;;;;;;;;;
2022/05/07 01:37:17;;;;;;;3;2.5;;;;;;;;;;;;;
2022/05/07 01:39:44;;;;;;;3.4;2.4;;;;;;;;;;;;;
2022/05/07 01:42:09;;;;;;;2.6;2.4;;;;;;;;;;;;;
2022/05/07 01:44:34;;;;;;;6.3;2.9;;;;;;;;;;;;;
2022/05/07 01:49:24;;;;;;;4.5;2.9;;;;;;;;;;;;;
2022/05/07 01:51:51;;;;;;;3.1;2.5;;;;;;;;;;;;;
2022/05/07 01:54:16;;;;;;;4.2;2.8;;;;;;;;;;;;;
2022/05/07 01:56:42;;;;;;;3;2.4;;;;;;;;;;;;;
2022/05/07 01:59:06;;;;;;;4;2.7;;;;;;;;;;;;;
2022/05/07 02:01:33;;;;;;;3.6;2.8;;;;;;;;;;;;;
2022/05/07 02:03:58;;;;;;;2.8;2.5;;;;;;;;;;;;;
2022/05/07 02:06:25;;;;;;;4.8;2.9;;;;;;;;;;;;;
2022/05/07 02:08:50;;;;;;;3.3;2.8;;;;;;;;;;;;;
2022/05/07 02:11:16;;;;;;;3.2;2.7;;;;;;;;;;;;;
2022/05/07 02:13:41;;;;;;;5.4;3.1;;;;;;;;;;;;;
2022/05/07 02:16:06;;;;;;;3.6;3;;;;;;;;;;;;;
2022/05/07 02:18:31;;;;;;;4.9;3.2;;;;;;;;;;;;;
2022/05/07 02:20:56;;;;;;;4.3;3;;;;;;;;;;;;;
2022/05/07 02:23:22;;;;;;;5.6;3;;;;;;;;;;;;;
2022/05/07 02:25:47;;;;;;;4.7;3;;;;;;;;;;;;;
2022/05/07 02:28:14;;;;;;;4.8;2.9;;;;;;;;;;;;;
2022/05/07 02:30:38;;;;;;;4.1;3;;;;;;;;;;;;;
2022/05/07 02:33:04;;;;;;;3.6;2.6;;;;;;;;;;;;;
2022/05/07 02:35:29;;;;;;;3.8;2.8;;;;;;;;;;;;;
2022/05/07 02:37:55;;;;;;;5.2;3.6;;;;;;;;;;;;;
2022/05/07 02:40:20;;;;;;;3.5;2.7;;;;;;;;;;;;;
2022/05/07 02:42:48;;;;;;;3.6;2.8;;;;;;;;;;;;;
2022/05/07 02:45:13;;;;;;;3.1;2.7;;;;;;;;;;;;;
2022/05/07 02:47:39;;;;;;;3.5;3.1;;;;;;;;;;;;;
2022/05/07 02:50:04;;;;;;;3.9;3.2;;;;;;;;;;;;;
2022/05/07 02:52:32;;;;;;;3.8;3.4;;;;;;;;;;;;;
2022/05/07 02:54:54;;;;;;;3.4;3.1;;;;;;;;;;;;;
2022/05/07 02:57:20;;;;;;;3.6;3.1;;;;;;;;;;;;;
2022/05/07 02:59:45;;;;;;;3.5;3.1;;;;;;;;;;;;;
2022/05/07 03:02:10;;;;;;;4.9;3;;;;;;;;;;;;;
2022/05/07 03:04:36;;;;;;;3.7;2.8;;;;;;;;;;;;;
2022/05/07 03:07:01;;;;;;;3.1;2.8;;;;;;;;;;;;;
2022/05/07 03:10:13;;;;;;;3.9;3.2;;;;;;;;;;;;;
2022/05/07 03:12:29;;;;;;;3.1;2.8;;;;;;;;;;;;;
2022/05/07 03:14:54;;;;;;;3;2.7;;;;;;;;;;;;;
2022/05/07 03:17:19;;;;;;;3.3;3;;;;;;;;;;;;;
2022/05/07 03:19:44;;;;;;;4.4;3.1;;;;;;;;;;;;;
2022/05/07 03:22:09;;;;;;;5.2;3.9;;;;;;;;;;;;;
2022/05/07 03:24:37;;;;;;;4.3;3.3;;;;;;;;;;;;;
2022/05/07 03:27:00;;;;;;;4.5;3.8;;;;;;;;;;;;;
2022/05/07 03:29:25;;;;;;;4.4;3.2;;;;;;;;;;;;;
2022/05/07 03:31:50;;;;;;;5.1;4;;;;;;;;;;;;;
2022/05/07 03:34:16;;;;;;;5.7;3.8;;;;;;;;;;;;;
2022/05/07 03:37:01;;;;;;;3.5;3.2;;;;;;;;;;;;;
2022/05/07 03:39:30;;;;;;;4.8;3.6;;;;;;;;;;;;;
2022/05/07 03:41:54;;;;;;;4.9;3.4;;;;;;;;;;;;;
2022/05/07 03:44:19;;;;;;;4.8;3.5;;;;;;;;;;;;;
2022/05/07 03:46:44;;;;;;;4.9;3.7;;;;;;;;;;;;;
2022/05/07 03:49:11;;;;;;;4;3.4;;;;;;;;;;;;;
2022/05/07 03:53:29;;;;;;;4.7;3.6;;;;;;;;;;;;;
2022/05/07 03:54:01;;;;;;;5.6;3.8;;;;;;;;;;;;;
2022/05/07 03:56:26;;;;;;;6;3.6;;;;;;;;;;;;;
2022/05/07 03:58:51;;;;;;;4.8;3.6;;;;;;;;;;;;;
2022/05/07 04:02:37;;;;;;;4.7;3.1;;;;;;;11.84;96.39258;941.4758;;;;
2022/05/07 04:05:09;;;;;;;6.8;3.6;;;;;;;11.91;96.22363;941.5418;;;;
2022/05/07 04:07:40;;;;;;;4.5;3.4;;;;;;;11.89;95.83008;941.5209;;;;
2022/05/07 04:10:13;;;;;;;4.4;3.5;;;;;;;11.91;95.87988;941.5003;;;;
2022/05/07 04:12:44;;;;;;;4.1;3.3;;;;;;;11.94;95.86328;941.5748;;;;
2022/05/07 04:15:09;;;;;;;4.2;3.3;;;;;;;11.99;95.64551;941.4747;;;;
2022/05/07 04:17:44;;;;;;;4.6;3.3;;;;;;;11.97;95.92773;941.4945;;;;
2022/05/07 04:20:21;;;;;;;6.2;3.6;;;;;;;12.04;95.57715;941.4755;;;;
2022/05/07 04:22:53;;;;;;;4.8;3.3;;;;;;;11.99;96.0127;941.4899;;;;
2022/05/07 04:25:20;;;;;;;4.2;3.3;;;;;;;12.01;96.15625;941.4517;;;;
2022/05/07 04:27:50;;;;;;;4.7;3.7;;;;;;;11.99;96.40234;941.4827;;;;
2022/05/07 04:30:23;;;;;;;4.5;3.6;;;;;;;11.99;96.48242;941.5002;;;;
2022/05/07 04:32:51;;;;;;;4.5;3.2;;;;;;;12.01;96.25879;941.5479;;;;
2022/05/07 04:35:16;;;;;;;4;3.4;;;;;;;12.03;95.94238;941.4786;;;;
2022/05/07 04:37:47;;;;;;;3.7;3.3;;;;;;;12.03;95.69043;941.5337;;;;
2022/05/07 04:40:12;;;;;;;4.6;3.2;;;;;;;11.97;95.68945;941.5536;;;;
2022/05/07 04:42:41;;;;;;;4.4;3.3;;;;;;;12.01;95.75488;941.5731;;;;
2022/05/07 04:45:15;;;;;;;4.1;3.4;;;;;;;12.04;95.82715;941.6127;;;;
2022/05/07 04:47:40;;;;;;;4;3.4;;;;;;;12;96.0625;941.6209;;;;
2022/05/07 04:50:12;;;;;;;6.7;3.8;;;;;;;12.08;95.82617;941.6346;;;;
2022/05/07 04:52:36;;;;;;;7.9;4.4;;;;;;;12.1;95.6582;941.6667;;;;
2022/05/07 04:55:04;;;;;;;4.7;4.2;;;;;;;12.08;95.21875;941.6722;;;;
2022/05/07 04:57:55;;;;;;;5.6;4.2;;;;;;;12.09;95.28027;941.5446;;;;
2022/05/07 05:00:25;;;;;;;6.1;4.1;;;;;;;11.98;96.26465;941.5976;;;;
2022/05/07 05:02:50;;;;;;;6.1;4.3;;;;;;;11.96;96.59082;941.5694;;;;
2022/05/07 05:05:21;;;;;;;7.5;4.5;;;;;;;11.98;96.96094;941.5433;;;;
2022/05/07 05:07:49;;;;;;;6.6;4.6;;;;;;;11.95;96.86523;941.5486;;;;
2022/05/07 05:10:14;;;;;;;4.5;3.8;;;;;;;12.07;96.75195;941.6362;;;;
2022/05/07 05:12:44;;;;;;;4.6;3.8;;;;;;;12.18;95.91699;941.6116;;;;
2022/05/07 05:15:09;;;;;;;3.8;3.5;;;;;;;12.17;95.30957;941.6586;;;;
2022/05/07 05:17:40;;;;;;;4.1;3.6;;;;;;;12.19;95.0498;941.6668;;;;
2022/05/07 05:20:11;;;;;;;4;3.6;;;;;;;12.25;95.15332;941.6644;;;;
2022/05/07 05:22:40;;;;;;;3.5;3.2;;;;;;;12.29;95.09473;941.6671;;;;
2022/05/07 05:25:05;;;;;;;3.9;3.5;;;;;;;12.31;94.86914;941.6928;;;;
2022/05/07 05:27:30;;;;;;;4.3;3.3;;;;;;;12.35;94.64746;941.6476;;;;
2022/05/07 05:29:58;;;;;;;3.9;3.5;;;;;;;12.36;93.8125;941.6397;;;;
2022/05/07 05:32:23;;;;;;;4.9;3.5;;;;;;;12.15;94.0791;941.6473;;;;
2022/05/07 05:34:54;;;;;;;3.8;3.4;;;;;;;12.15;94.61621;941.688;;;;
2022/05/07 05:37:18;;;;;;;3.9;3.5;;;;;;;12.15;94.88086;941.7255;;;;
2022/05/07 05:39:47;;;;;;;3.6;3.3;;;;;;;12.22;94.91797;941.7991;;;;
2022/05/07 05:42:16;;;;;;;4.2;3.8;;;;;;;12.27;94.50391;941.7795;;;;
2022/05/07 05:44:41;;;;;;;4.6;3.9;;;;;;;12.31;93.83691;941.803;;;;
2022/05/07 05:47:09;;;;;;;4.4;3.7;;;;;;;12.34;93.70508;941.8328;;;;
2022/05/07 05:49:35;;;;;;;5.5;4.3;;;;;;;12.34;93.95801;941.7977;;;;
2022/05/07 05:52:02;;;;;;;4.7;3.8;;;;;;;12.42;94.41113;941.8808;;;;
2022/05/07 05:54:27;;;;;;;4.7;4;;;;;;;12.44;94.19922;941.8244;;;;
2022/05/07 05:56:55;;;;;;;4.3;3.7;;;;;;;12.46;93.58398;941.7574;;;;
2022/05/07 05:59:20;;;;;;;3.9;3.6;;;;;;;12.38;93.6582;941.866;;;;
2022/05/07 06:01:49;;;;;;;3.8;3.4;;;;;;;12.47;94.2832;941.8438;;;;
2022/05/07 06:04:14;;;;;;;5.1;3.4;;;;;;;12.63;93.53809;941.8133;;;;
2022/05/07 06:06:44;;;;;;;4.1;3.5;;;;;;;12.63;93.20605;941.7773;;;;
2022/05/07 06:09:11;;;;;;;4.3;3.4;;;;;;;12.61;92.88965;941.8272;;;;
2022/05/07 06:11:36;;;;;;;3.8;3.3;;;;;;;12.64;92.85156;941.8733;;;;
2022/05/07 06:14:04;;;;;;;3.5;3.2;;;;;;;12.68;91.86328;941.8097;;;;
2022/05/07 06:16:29;;;;;;;3.8;3.5;;;;;;;12.67;91.58594;941.8095;;;;
2022/05/07 06:18:57;;;;;;;3.9;3.5;;;;;;;12.64;91.37402;941.8006;;;;
2022/05/07 06:21:22;;;;;;;3.5;3.2;;;;;;;12.67;92.06836;941.7849;;;;
2022/05/07 06:23:51;;;;;;;3.6;3.3;;;;;;;12.75;92.51953;941.8692;;;;
2022/05/07 06:28:41;;;;;;;3.1;2.7;;;;;;;12.79;91.74805;941.8223;;;;
2022/05/07 06:31:06;;;;;;;3;2.7;;;;;;;12.86;91.04102;941.78;;;;
2022/05/07 06:33:32;;;;;;;3.4;2.9;;;;;;;12.91;91.10742;941.8562;;;;
2022/05/07 06:35:57;;;;;;;3;2.7;;;;;;;12.95;90.40527;941.822;;;;
2022/05/07 06:38:27;;;;;;;3.4;3.1;;;;;;;12.97;90.12207;941.8622;;;;
2022/05/07 06:41:02;;;;;;;3.2;2.9;;;;;;;13.08;90.01758;941.7911;;;;
2022/05/07 06:43:22;;;;;;;3;2.7;;;;;;;13.07;89.61426;941.8894;;;;
2022/05/07 06:45:49;;;;;;;2.9;2.7;;;;;;;12.97;90.30566;941.8702;;;;
2022/05/07 06:48:15;;;;;;;2.8;2.4;;;;;;;13.03;90.16699;941.7813;;;;
2022/05/07 06:50:42;;;;;;;3.3;2.6;;;;;;;13.09;90.11133;941.9023;;;;
2022/05/07 06:53:07;;;;;;;2.5;2.3;;;;;;;12.99;89.79297;941.9606;;;;
2022/05/07 06:55:54;;;;;;;2.7;2.5;;;;;;;12.97;89.71973;941.9205;;;;
2022/05/07 06:57:59;;;;;;;2.6;2.4;;;;;;;12.94;90.47168;941.918;;;;
2022/05/07 07:00:27;;;;;;;2.5;2.1;;;;;;;12.99;89.83887;941.9207;;;;
2022/05/07 07:02:52;;;;;;;2;1.9;;;;;;;12.98;88.95215;941.9117;;;;
2022/05/07 07:05:21;;;;;;;1.9;1.5;;;;;;;12.94;89.3125;941.8828;;;;
2022/05/07 07:07:50;;;;;;;2.5;2.1;;;;;;;12.87;89.35547;941.9359;;;;
2022/05/07 07:10:15;;;;;;;1.8;1.7;;;;;;;12.83;90.01172;941.9092;;;;
2022/05/07 07:12:42;;;;;;;1.6;1.5;;;;;;;12.85;89.94629;941.9157;;;;
2022/05/07 07:15:08;;;;;;;1.6;1.5;;;;;;;12.91;90.13184;941.8833;;;;
2022/05/07 07:17:38;;;;;;;2;1.9;;;;;;;12.95;89.88867;941.8964;;;;
2022/05/07 07:20:03;;;;;;;2.5;2.3;;;;;;;13.03;89.71973;941.8611;;;;
2022/05/07 07:22:30;;;;;;;2.5;2;;;;;;;13.05;90.12695;941.8965;;;;
2022/05/07 07:24:55;;;;;;;2.9;2.6;;;;;;;13.1;89.44922;941.8344;;;;
2022/05/07 07:27:23;;;;;;;3.3;3;;;;;;;13.16;89.63086;941.8675;;;;
2022/05/07 07:29:49;;;;;;;4.5;4.1;;;;;;;13.25;89.71973;941.8517;;;;
2022/05/07 07:32:15;;;;;;;3.7;3.4;;;;;;;13.29;88.99219;941.8855;;;;
2022/05/07 07:34:40;;;;;;;4.2;3;;;;;;;13.32;88.85059;941.9272;;;;
2022/05/07 07:37:07;;;;;;;2.8;2.6;;;;;;;13.32;89.13574;941.8352;;;;
2022/05/07 07:39:34;;;;;;;2.9;2.7;;;;;;;13.39;88.9209;941.942;;;;
2022/05/07 07:42:04;;;;;;;2.5;2.3;;;;;;;13.3;88.91406;941.8984;;;;
2022/05/07 07:44:29;;;;;;;2.8;2.6;;;;;;;13.3;88.99609;941.9559;;;;
2022/05/07 07:49:23;;;;;;;5.3;3.3;;;;;;;13.32;88.76953;941.9576;;;;
2022/05/07 07:51:48;;;;;;;2.9;2.6;;;;;;;13.27;88.91992;941.9734;;;;
2022/05/07 07:54:17;;;;;;;3.2;2.5;;;;;;;13.24;89.01758;941.9125;;;;
2022/05/07 07:56:45;;;;;;;3.5;2.8;;;;;;;13.21;89.32031;941.9776;;;;
2022/05/07 07:59:10;;;;;;;3.4;3.1;;;;;;;13.14;89.9043;941.9905;;;;
2022/05/07 08:01:39;;;;;;;3.3;3;;;;;;;13.07;90.48828;942.0245;;;;
2022/05/07 08:04:05;;;;;;;4.2;3.2;;;;;;;13.05;91.29883;941.9156;;;;
2022/05/07 08:06:33;;;;;;;3.5;3;;;;;;;13.05;91.49414;941.9405;;;;
2022/05/07 08:13:48;;;;;;;4.4;4;;;;;;;12.85;92.74902;941.9669;;;;
2022/05/07 08:16:13;;;;;;;4.1;3.7;;;;;;;12.82;93.2002;941.9611;;;;
2022/05/07 08:18:41;;;;;;;4.3;3.3;;;;;;;12.65;93.57715;942.0634;;;;
2022/05/07 08:21:06;;;;;;;2.8;2.5;;;;;;;12.77;93.90234;942.0452;;;;
2022/05/07 08:23:32;;;;;;;2.7;2.4;;;;;;;12.78;93.7666;942.0605;;;;
2022/05/07 08:25:58;;;;;;;3.1;2.8;;;;;;;12.95;93.95313;942.0947;;;;
2022/05/07 08:28:24;;;;;;;4.5;2.7;;;;;;;13.03;93.17578;942.1258;;;;
2022/05/07 08:30:49;;;;;;;2.9;2.6;;;;;;;12.72;93.60547;942.0776;;;;
2022/05/07 08:33:16;;;;;;;3;2.3;;;;;;;12.73;94.66113;942.1287;;;;
2022/05/07 08:35:41;;;;;;;3.1;2.6;;;;;;;12.99;94.45215;942.0692;;;;
2022/05/07 08:38:09;;;;;;;3.1;2.5;;;;;;;13.09;94.49902;942.0862;;;;
2022/05/07 08:40:34;;;;;;;2.8;2.4;;;;;;;13.13;93.68164;942.0815;;;;
2022/05/07 08:43:03;;;;;;;3;2.7;;;;;;;13.13;94.11621;942.1096;;;;
2022/05/07 08:45:31;;;;;;;2.9;2.6;;;;;;;13.11;93.45801;942.1431;;;;
2022/05/07 08:47:56;;;;;;;4;3.1;;;;;;;13.19;94.17578;942.0134;;;;
2022/05/07 08:50:27;;;;;;;3.8;3;;;;;;;13.39;93.2666;942.0828;;;;
2022/05/07 08:52:52;;;;;;;3;2.8;;;;;;;13.43;93.11328;942.1417;;;;
2022/05/07 08:55:20;;;;;;;3.5;2.6;;;;;;;13.54;92.89551;942.1085;;;;
2022/05/07 08:57:45;;;;;;;3;2.4;;;;;;;13.6;92.33398;942.1967;;;;
2022/05/07 09:00:18;;;;;;;3.7;2.5;;;;;;;13.55;91.74805;942.1038;;;;
2022/05/07 09:02:50;;;;;;;2.7;2.3;;;;;;;13.48;91.76855;942.117;;;;
2022/05/07 09:05:15;;;;;;;3.6;2.1;;;;;;;13.29;91.39355;942.1358;;;;
2022/05/07 09:07:49;;;;;;;4.3;2.4;;;;;;;13.33;91.10449;942.1512;;;;
2022/05/07 09:10:16;;;;;;;3.8;2.3;;;;;;;13.39;90.40332;942.1716;;;;
2022/05/07 09:12:45;;;;;;;2.2;1.9;;;;;;;13.43;90.125;942.1512;;;;
2022/05/07 09:15:10;;;;;;;3.5;2.8;;;;;;;13.41;91.62695;942.17;;;;
2022/05/07 09:17:37;;;;;;;3.2;2.8;;;;;;;13.34;92.27637;942.1825;;;;
2022/05/07 09:20:02;;;;;;;3.6;3.3;;;;;;;13.33;92.66699;942.2369;;;;
2022/05/07 09:22:31;;;;;;;3;2.4;;;;;;;13.05;93.90527;942.1284;;;;
2022/05/07 09:24:56;;;;;;;3.3;2.3;;;;;;;13.38;92.93164;942.1907;;;;
2022/05/07 09:27:25;;;;;;;2.2;2;;;;;;;13.43;92.42188;942.1936;;;;
2022/05/07 09:29:50;;;;;;;3.2;2.9;;;;;;;13.54;92.10254;942.1422;;;;
2022/05/07 09:32:16;;;;;;;3.3;3;;;;;;;13.46;92.59082;942.1481;;;;
2022/05/07 09:37:07;;;;;;;3.5;3.2;;;;;;;13.58;92.18066;942.1551;;;;
2022/05/07 09:39:32;;;;;;;5.3;4.2;;;;;;;13.52;93.05273;942.1284;;;;
2022/05/07 09:42:01;;;;;;;8.2;6.4;;;;;;;13.71;92.19629;942.0695;;;;
2022/05/07 09:44:27;;;;;;;14.2;9.6;;;;;;;13.78;92.11914;942.1065;;;;
2022/05/07 09:46:49;;;;;;;16.5;11.2;;;;;;;13.83;91.08203;942.0837;;;;
2022/05/07 09:49:19;;;;;;;9.4;7.6;;;;;;;13.92;91.62988;942.1096;;;;
2022/05/07 09:51:44;;;;;;;7.6;6.8;;;;;;;13.89;92.37207;942.1127;;;;
2022/05/07 09:59:04;;;;;;;7.7;6.9;;;;;;;14.34;89.36816;942.0461;;;;
2022/05/07 10:01:29;;;;;;;8.3;6.8;;;;;;;14.28;90.49707;942.0115;;;;
2022/05/07 10:03:57;;;;;;;20.5;16.6;;;;;;;14.27;90.26465;941.986;;;;
2022/05/07 10:06:23;;;;;;;31.2;23;;;;;;;14.41;90.26953;941.9861;;;;
2022/05/07 10:08:51;;;;;;;8.6;7.7;;;;;;;14.56;89.0332;941.9899;;;;
2022/05/07 10:11:17;;;;;;;7.3;6.6;;;;;;;14.67;87.36133;941.8956;;;;
2022/05/07 10:13:42;;;;;;;14.6;12.3;;;;;;;14.84;87.83398;941.8958;;;;
2022/05/07 10:16:10;;;;;;;8.1;7.3;;;;;;;14.96;87.01563;941.9373;;;;
2022/05/07 10:18:34;;;;;;;7.5;6.8;;;;;;;15.06;85.70801;941.9391;;;;
2022/05/07 10:21:03;;;;;;;7.9;7.2;;;;;;;15.08;83.99316;941.8925;;;;
2022/05/07 10:23:24;;;;;;;8.4;7.6;;;;;;;15.21;85.01172;941.8842;;;;
2022/05/07 10:25:50;;;;;;;8.3;7.5;;;;;;;15.13;83.83008;941.9108;;;;
2022/05/07 10:28:15;;;;;;;8.4;7.6;;;;;;;15.15;84.14551;941.8867;;;;
2022/05/07 10:30:40;;;;;;;7.8;7;;;;;;;15.25;83.57617;941.8739;;;;
2022/05/07 10:33:07;;;;;;;8.5;7.3;;;;;;;15.42;82.66309;941.8849;;;;
2022/05/07 10:35:32;;;;;;;8.7;7.8;;;;;;;15.11;85.07324;941.8572;;;;
2022/05/07 10:38:01;;;;;;;8.1;7.3;;;;;;;15.08;84.37402;941.8716;;;;
2022/05/07 10:40:26;;;;;;;8.5;7.7;;;;;;;15.32;82.7002;941.8047;;;;
2022/05/07 10:42:51;;;;;;;8.4;7.6;;;;;;;15.37;82.74512;941.7885;;;;
2022/05/07 10:45:16;;;;;;;8.8;7.9;;;;;;;15.12;83.86328;941.7938;;;;
2022/05/07 10:47:44;;;;;;;7.5;6.8;;;;;;;15.31;82.67578;941.8296;;;;
2022/05/07 10:50:17;;;;;;;8.1;6.5;;;;;;;15.36;82.69629;941.8005;;;;
2022/05/07 10:52:45;;;;;;;8;7.1;;;;;;;15.28;82.7168;941.7952;;;;
2022/05/07 10:55:19;;;;;;;7.5;6.8;;;;;;;15.37;81.95996;941.7676;;;;
2022/05/07 10:57:48;;;;;;;9.4;7.9;;;;;;;15.19;82.86133;941.7455;;;;
2022/05/07 11:00:13;;;;;;;9.7;8.7;;;;;;;15.21;83.37305;941.7502;;;;
2022/05/07 11:02:45;;;;;;;8.8;7.9;;;;;;;15.15;83.19922;941.7022;;;;
2022/05/07 11:05:09;;;;;;;8.3;7.5;;;;;;;14.94;84.57813;941.6262;;;;
2022/05/07 11:07:37;;;;;;;7.8;7.1;;;;;;;14.92;84.3418;941.7088;;;;
2022/05/07 11:10:08;;;;;;;10.2;8.6;;;;;;;14.85;85.57715;941.7001;;;;
2022/05/07 11:12:41;;;;;;;8.6;7.7;;;;;;;14.87;84.71387;941.692;;;;
2022/05/07 11:15:10;;;;;;;8.7;7.6;;;;;;;14.87;85.6709;941.6512;;;;
2022/05/07 11:17:42;;;;;;;8.1;7;;;;;;;14.93;85.47559;941.6358;;;;
2022/05/07 11:20:16;;;;;;;8.5;7.7;;;;;;;15.08;85.76953;941.6046;;;;
2022/05/07 11:22:42;;;;;;;8;7.2;;;;;;;15.05;84.71484;941.6262;;;;
2022/05/07 11:25:07;;;;;;;8.4;7.6;;;;;;;15;86.24023;941.5995;;;;
2022/05/07 11:27:36;;;;;;;7.3;6.6;;;;;;;15.17;85.20996;941.5474;;;;
2022/05/07 11:30:12;;;;;;;7;6.3;;;;;;;15.01;84.2793;941.5844;;;;
2022/05/07 11:32:33;;;;;;;7.9;7.1;;;;;;;15.05;85.75293;941.5324;;;;
2022/05/07 11:35:03;;;;;;;7.1;6.5;;;;;;;15.06;85.63965;941.6367;;;;
2022/05/07 11:37:27;;;;;;;6.6;6;;;;;;;15.23;84.125;941.5956;;;;
2022/05/07 11:39:52;;;;;;;7;6.1;;;;;;;14.95;84.77637;941.6141;;;;
2022/05/07 11:42:22;;;;;;;6.3;5.7;;;;;;;14.85;85.73828;941.6328;;;;
2022/05/07 11:47:12;;;;;;;5.9;5.1;;;;;;;15.02;84.92676;941.628;;;;
2022/05/07 11:49:41;;;;;;;5.3;4.8;;;;;;;15.16;83.92773;941.5793;;;;
2022/05/07 11:52:04;;;;;;;4.8;4.4;;;;;;;15.15;83.37207;941.6204;;;;
2022/05/07 11:54:29;;;;;;;4.7;4.3;;;;;;;15.01;83.93457;941.4905;;;;
2022/05/07 11:56:54;;;;;;;5.3;4.8;;;;;;;15.04;83.63965;941.4908;;;;
2022/05/07 11:59:19;;;;;;;5.1;4.6;;;;;;;14.73;85.5293;941.5292;;;;
2022/05/07 12:01:44;;;;;;;5.6;5;;;;;;;14.64;86.67578;941.5566;;;;
2022/05/07 12:04:09;;;;;;;5.8;5.2;;;;;;;14.59;87.36816;941.5371;;;;
2022/05/07 12:06:34;;;;;;;5.8;5.2;;;;;;;14.22;88.1709;941.5469;;;;
2022/05/07 12:09:02;;;;;;;5.8;5.3;;;;;;;14.32;88.7207;941.5767;;;;
2022/05/07 12:11:27;;;;;;;5.5;5;;;;;;;14.46;87.76953;941.5108;;;;
2022/05/07 12:13:56;;;;;;;5.9;5.3;;;;;;;14.58;86.82422;941.5075;;;;
2022/05/07 12:18:49;;;;;;;6;5.4;;;;;;;14.65;85.44434;941.466;;;;
2022/05/07 12:21:12;;;;;;;5.8;5.2;;;;;;;14.59;86.86133;941.4658;;;;
2022/05/07 12:30:53;;;;;;;8.7;7.4;;;;;;;14.58;86.93945;941.4682;;;;
2022/05/07 12:33:18;;;;;;;8.9;7.8;;;;;;;14.38;88.74316;941.5214;;;;
2022/05/07 12:35:49;;;;;;;6.5;5.4;;;;;;;14.45;89;941.5284;;;;
2022/05/07 12:38:12;;;;;;;9;7.3;;;;;;;14.54;88.71875;941.4842;;;;
2022/05/07 12:40:39;;;;;;;7.6;6.7;;;;;;;14.38;89.5957;941.5094;;;;
2022/05/07 12:43:03;;;;;;;10.6;9.1;;;;;;;14.38;89.58398;941.4997;;;;
2022/05/07 12:45:31;;;;;;;9.4;8.2;;;;;;;14.34;89.0127;941.4228;;;;
2022/05/07 12:47:57;;;;;;;16.8;13.7;;;;;;;14.37;89.4668;941.5237;;;;
2022/05/07 12:50:27;;;;;;;9.1;8.2;;;;;;;14.28;90.93457;941.43;;;;
2022/05/07 12:52:52;;;;;;;7.5;6.8;;;;;;;14.39;90.64453;941.4861;;;;
2022/05/07 12:55:21;;;;;;;7.8;6.7;;;;;;;14.31;89.66113;941.4397;;;;
2022/05/07 12:57:49;;;;;;;8;6.7;;;;;;;14.43;90.16016;941.3719;;;;
2022/05/07 13:00:14;;;;;;;7;6.3;;;;;;;14.56;89.33301;941.421;;;;
2022/05/07 13:02:39;;;;;;;6.8;6.1;;;;;;;14.6;88.69727;941.4177;;;;
2022/05/07 13:05:10;;;;;;;7.1;6.4;;;;;;;14.59;89.31543;941.3656;;;;
2022/05/07 13:07:35;;;;;;;6.9;6.2;;;;;;;14.66;87.55566;941.288;;;;
2022/05/07 13:10:04;;;;;;;6.8;6.1;;;;;;;14.52;88.8418;941.3376;;;;
2022/05/07 13:12:29;;;;;;;6;5.4;;;;;;;14.52;88.24316;941.3152;;;;
2022/05/07 13:14:57;;;;;;;6.6;5.9;;;;;;;14.59;87.95605;941.3431;;;;
2022/05/07 13:17:23;;;;;;;6.3;5.7;;;;;;;14.62;87.68652;941.3546;;;;
2022/05/07 13:19:47;;;;;;;5.5;5;;;;;;;14.67;86.99219;941.4171;;;;
2022/05/07 13:22:13;;;;;;;5.6;5.1;;;;;;;14.64;87.33105;941.3851;;;;
2022/05/07 13:24:39;;;;;;;6.5;5.9;;;;;;;14.58;87.67773;941.3848;;;;
2022/05/07 13:27:04;;;;;;;7.3;6.6;;;;;;;14.35;89.82031;941.3298;;;;
2022/05/07 13:29:32;;;;;;;6.6;6;;;;;;;14.39;89.78223;941.3114;;;;
2022/05/07 13:32:00;;;;;;;7.2;6.4;;;;;;;14.11;91.11523;941.3239;;;;
2022/05/07 13:34:26;;;;;;;6.2;5.6;;;;;;;13.87;91.91797;941.3322;;;;
2022/05/07 13:36:57;;;;;;;6.7;6;;;;;;;13.98;91.65527;941.3411;;;;
2022/05/07 13:39:28;;;;;;;6.5;5.9;;;;;;;13.88;93.41504;941.349;;;;
2022/05/07 13:42:00;;;;;;;6.7;6;;;;;;;14.1;92.24316;941.2719;;;;
2022/05/07 13:44:24;;;;;;;6.7;6.1;;;;;;;14.19;92.41211;941.2767;;;;
2022/05/07 13:46:52;;;;;;;6.6;6;;;;;;;14.34;91.5332;941.2658;;;;
2022/05/07 13:49:17;;;;;;;6.6;5.9;;;;;;;14.39;91.70605;941.2112;;;;
2022/05/07 13:51:45;;;;;;;7.8;6.6;;;;;;;14.39;90.19629;941.2241;;;;
2022/05/07 13:54:16;;;;;;;6.9;6.2;;;;;;;14.51;89.25293;941.1862;;;;
2022/05/07 13:56:40;;;;;;;6.4;5.8;;;;;;;14.67;88.20313;941.1814;;;;
2022/05/07 13:59:07;;;;;;;6.9;6.2;;;;;;;14.72;88.07324;941.1429;;;;
2022/05/07 14:01:32;;;;;;;8.5;7.6;;;;;;;14.81;88.95801;941.0865;;;;
2022/05/07 14:04:01;;;;;;;7;6;;;;;;;14.64;89.60352;941.135;;;;
2022/05/07 14:06:26;;;;;;;5.6;5.1;;;;;;;14.71;87.91211;941.1317;;;;
2022/05/07 14:08:52;;;;;;;6.5;5.9;;;;;;;14.84;87.37305;941.1397;;;;
2022/05/07 14:11:17;;;;;;;5.7;5.2;;;;;;;14.91;86.16406;941.1604;;;;
2022/05/07 14:13:44;;;;;;;6.6;5.9;;;;;;;14.95;85.9873;941.1587;;;;
2022/05/07 14:16:09;;;;;;;6.5;5.9;;;;;;;14.96;86.20996;941.177;;;;
2022/05/07 14:18:35;;;;;;;6.5;5.9;;;;;;;14.86;86.25781;941.211;;;;
2022/05/07 14:21:00;;;;;;;6.4;5.8;;;;;;;14.73;86.94727;941.1989;;;;
2022/05/07 14:23:28;;;;;;;6.4;5.7;;;;;;;14.67;87.31348;941.2095;;;;
2022/05/07 14:25:53;;;;;;;6.2;5.6;;;;;;;14.73;87.18945;941.2615;;;;
2022/05/07 14:28:18;;;;;;;6.5;5.9;;;;;;;14.77;87.39258;941.2583;;;;
2022/05/07 14:30:43;;;;;;;5.9;5.3;;;;;;;14.72;87.11719;941.288;;;;
2022/05/07 14:33:08;;;;;;;5.4;4.9;;;;;;;14.69;87.22852;941.3337;;;;
2022/05/07 14:35:37;;;;;;;6;5.4;;;;;;;14.65;87;941.2889;;;;
2022/05/07 14:38:02;;;;;;;5.8;5;;;;;;;14.52;86.83496;941.312;;;;
2022/05/07 14:40:31;;;;;;;6.6;5.9;;;;;;;14.43;87.46387;941.274;;;;
2022/05/07 14:42:55;;;;;;;11.2;6;;;;;;;14.27;89.37988;941.3195;;;;
2022/05/07 14:45:24;;;;;;;7.2;6.5;;;;;;;14.23;89.84082;941.3379;;;;
2022/05/07 14:47:48;;;;;;;12.9;9.5;;;;;;;14.34;89.94531;941.3499;;;;
2022/05/07 14:50:17;;;;;;;8.5;7.6;;;;;;;14.33;90.21777;941.3403;;;;
2022/05/07 14:52:47;;;;;;;12.4;8;;;;;;;14.29;90.72852;941.3091;;;;
2022/05/07 14:55:12;;;;;;;9.9;8.7;;;;;;;14.37;90.58496;941.2762;;;;
2022/05/07 14:57:41;;;;;;;9.7;8.4;;;;;;;14.32;90.43555;941.2683;;;;
2022/05/07 15:00:07;;;;;;;9.8;8.8;;;;;;;14.43;90.19434;941.2701;;;;
2022/05/07 15:02:31;;;;;;;10;9;;;;;;;14.48;89.96191;941.2855;;;;
2022/05/07 15:04:59;;;;;;;11;9.8;;;;;;;14.44;89.88574;941.2575;;;;
2022/05/07 15:07:24;;;;;;;12.9;10.3;;;;;;;14.39;90.14063;941.2145;;;;
2022/05/07 15:12:18;;;;;;;9.5;8.4;;;;;;;14.44;89.35352;941.2271;;;;
2022/05/07 15:14:45;;;;;;;7.9;6.8;;;;;;;14.45;88.97656;941.2608;;;;
2022/05/07 15:17:12;;;;;;;6.7;6;;;;;;;14.56;88.78027;941.2687;;;;
2022/05/07 15:19:37;;;;;;;6.4;5.7;;;;;;;14.56;88.12305;941.2791;;;;
2022/05/07 15:22:06;;;;;;;7.1;5.8;;;;;;;14.63;87.12402;941.2569;;;;
2022/05/07 15:24:31;;;;;;;6.8;6.1;;;;;;;14.53;88.72852;941.2511;;;;
2022/05/07 15:26:57;;;;;;;6.9;6.2;;;;;;;14.58;89.07227;941.2726;;;;
2022/05/07 15:29:22;;;;;;;6.6;5.8;;;;;;;14.55;89.42578;941.2527;;;;
2022/05/07 15:36:54;;;;;;;8.7;7.2;;;;;;;14.65;89.30566;941.2809;;;;
2022/05/07 15:39:11;;;;;;;7.7;6.9;;;;;;;14.65;89.22461;941.2592;;;;
2022/05/07 15:41:36;;;;;;;6;5.3;;;;;;;14.69;87.9082;941.2215;;;;
2022/05/07 15:44:03;;;;;;;6.4;5.1;;;;;;;14.71;88.5791;941.1437;;;;
2022/05/07 15:46:28;;;;;;;5.9;5.3;;;;;;;14.71;89.52637;941.2311;;;;
2022/05/07 15:48:57;;;;;;;5.4;4.9;;;;;;;14.56;89.10254;941.1404;;;;
2022/05/07 15:51:22;;;;;;;7;5.1;;;;;;;14.65;89.09668;941.1944;;;;
2022/05/07 15:53:52;;;;;;;8.8;7.9;;;;;;;14.53;89.31641;941.2383;;;;
2022/05/07 15:56:20;;;;;;;5.9;5.2;;;;;;;14.61;89.25;941.2053;;;;
2022/05/07 15:58:44;;;;;;;4.6;4.2;;;;;;;14.71;88.42871;941.1774;;;;
2022/05/07 16:01:12;;;;;;;5.6;4.5;;;;;;;14.74;87.81348;941.1813;;;;
2022/05/07 16:03:38;;;;;;;4.7;4.3;;;;;;;14.77;87.43848;941.1837;;;;
2022/05/07 16:06:07;;;;;;;5;4.5;;;;;;;14.55;87.49902;941.1333;;;;
2022/05/07 16:08:30;;;;;;;8.3;7.1;;;;;;;14.52;87.97559;941.1789;;;;
2022/05/07 16:10:57;;;;;;;7.9;6.7;;;;;;;14.6;88.40918;941.1548;;;;
2022/05/07 16:13:22;;;;;;;14.4;9.5;;;;;;;14.57;88.79395;941.1412;;;;
2022/05/07 16:15:54;;;;;;;6.1;5.1;;;;;;;14.62;88.36621;941.1815;;;;
2022/05/07 16:18:21;;;;;;;6.3;4.6;;;;;;;14.32;86.86426;941.1241;;;;